Flight Track Log - Related Links

Times and Time Zones

All times are in EDT time to prevent confusion due to time zone crossing. See the SWA943 flight status page for this flight to view local times or setup timezone preferences in your user account.

Time Position Orientation Groundspeed Altitude Reporting Facility
EDT Latitude Longitude Course Direction KTS MPH feet Rate Location/Type
Sat 03:02:09 PM 42.3667 -70.9667 71° East 183 211 1,100  Level KA90
Sat 03:03:16 PM 42.3833 -70.9000 71° East 221 254 3,500 2,640 Climbing KA90
Sat 03:04:39 PM 42.4172 -70.7886 68° East 252 290 7,700 3,063 Climbing Boston Center
Sat 03:05:39 PM 42.4869 -70.7806 North 279 321 10,800 2,678 Climbing Boston Center
Sat 03:06:40 PM 42.5536 -70.8692 316° Northwest 341 392 13,100 2,758 Climbing Boston Center
Sat 03:07:43 PM 42.6183 -70.9836 308° West 357 411 16,500 2,661 Climbing Boston Center
Sat 03:08:44 PM 42.6803 -71.0939 307° West 367 422 18,600 2,083 Climbing Boston Center
Sat 03:09:44 PM 42.7336 -71.2011 304° West 382 440 20,700 2,182 Climbing Boston Center
Sat 03:10:45 PM 42.7706 -71.3447 289° West 401 461 23,000 2,226 Climbing Boston Center
Sat 03:11:48 PM 42.8208 -71.5183 292° West 411 473 25,300 1,887 Climbing Boston Center
Sat 03:12:49 PM 42.8611 -71.6564 292° West 426 490 26,900 1,636 Climbing Boston Center
Sat 03:13:49 PM 42.9067 -71.8092 292° West 436 502 28,600 1,790 Climbing Boston Center
Sat 03:14:53 PM 42.9483 -71.9650 290° West 441 507 30,600 1,824 Climbing Boston Center
Sat 03:15:54 PM 42.9714 -72.1247 281° West 433 498 32,400 1,736 Climbing Boston Center
Sat 03:16:54 PM 42.9967 -72.3006 281° West 433 498 34,100 1,587 Climbing Boston Center
Sat 03:17:55 PM 43.0167 -72.4583 280° West 427 491 35,600 934 Climbing Boston Center
Sat 03:18:56 PM 43.0419 -72.6411 281° West 422 486 36,000 192 Climbing Boston Center
Sat 03:20:00 PM 43.0611 -72.7722 281° West 421 484 36,000  Level Boston Center
Sat 03:21:01 PM 43.0869 -72.9608 281° West 421 484 36,000  Level Boston Center
Sat 03:22:01 PM 43.1058 -73.0950 281° West 418 481 36,000  Level Boston Center
Sat 03:23:04 PM 43.1261 -73.2514 280° West 419 482 36,000  Level Boston Center
Sat 03:24:05 PM 43.1467 -73.4311 279° West 419 482 36,000  Level Boston Center
Sat 03:25:06 PM 43.1383 -73.5953 266° West 433 498 36,000  Level Boston Center
Sat 03:26:06 PM 43.1303 -73.7492 266° West 429 494 36,000  Level Boston Center
Sat 03:27:10 PM 43.1214 -73.9128 266° West 431 496 36,000  Level Boston Center
Sat 03:28:10 PM 43.1089 -74.1119 265° West 437 503 36,000  Level Boston Center
Sat 03:29:10 PM 43.0981 -74.2769 265° West 436 502 36,000  Level Boston Center
Sat 03:30:14 PM 43.0883 -74.4419 265° West 435 501 36,000  Level Boston Center
Sat 03:31:14 PM 43.0775 -74.6067 265° West 435 501 36,000  Level Boston Center
Sat 03:32:15 PM 43.0658 -74.7711 265° West 432 497 36,000  Level Boston Center
Sat 03:33:16 PM 43.0358 -74.9339 256° West 438 504 36,000  Level Boston Center
Sat 03:34:20 PM 43.0064 -75.0983 256° West 440 506 36,000  Level Boston Center
Sat 03:35:21 PM 42.9761 -75.2606 256° West 436 502 36,000  Level Boston Center
Sat 03:36:22 PM 42.9464 -75.4219 256° West 437 503 36,000  Level Boston Center
Sat 03:37:23 PM 42.9169 -75.5831 256° West 436 502 36,000  Level Boston Center
Sat 03:38:23 PM 42.8864 -75.7447 256° West 438 504 36,000  Level Boston Center
Sat 03:39:27 PM 42.8494 -75.9392 256° West 440 506 36,000  Level Boston Center
Sat 03:40:27 PM 42.8194 -76.1003 256° West 439 505 36,000  Level Boston Center
Sat 03:41:28 PM 42.7878 -76.2617 255° West 441 507 36,000  Level Boston Center
Sat 03:42:31 PM 42.7589 -76.4047 255° West 438 504 36,000  Level Boston Center
Sat 03:43:32 PM 42.7281 -76.5647 255° West 439 505 36,000  Level Boston Center
Sat 03:44:33 PM 42.6894 -76.7561 255° West 438 504 36,000  Level Boston Center
Sat 03:45:33 PM 42.6578 -76.9161 255° West 438 504 36,000  Level Boston Center
Sat 03:46:37 PM 42.6256 -77.0778 255° West 443 510 36,000  Level Boston Center
Sat 03:47:39 PM 42.5917 -77.2367 254° West 442 509 36,000  Level Cleveland Center
Sat 03:48:41 PM 42.5583 -77.3997 255° West 444 511 36,000  Level Cleveland Center
Sat 03:49:43 PM 42.5208 -77.5750 254° West 444 511 36,000  Level Cleveland Center
Sat 03:50:45 PM 42.4964 -77.7378 259° West 440 506 36,000  Level Cleveland Center
Sat 03:51:47 PM 42.4953 -77.8956 270° West 431 496 36,000  Level Cleveland Center
Sat 03:53:00 PM 42.4969 -78.0899 271° West  Level FlightAware Approximate
Sat 03:53:51 PM 42.4950 -78.2528 271° West 430 495 36,000  Level Cleveland Center
Sat 03:54:53 PM 42.4933 -78.4156 269° West 432 497 36,000  Level Cleveland Center
Sat 03:55:55 PM 42.4939 -78.5775 270° West 433 498 36,000  Level Cleveland Center
Sat 03:56:57 PM 42.4933 -78.7397 270° West 431 496 36,000  Level Cleveland Center
Sat 03:57:59 PM 42.4917 -78.9011 269° West 430 495 36,000 532 Level Cleveland Center
Sat 03:59:01 PM 42.4894 -79.0967 269° West 433 498 37,100 968 Climbing Cleveland Center
Sat 04:00:03 PM 42.4872 -79.2606 269° West 433 498 38,000 432 Climbing Cleveland Center
Sat 04:01:06 PM 42.4853 -79.4225 269° West 431 496 38,000  Level Cleveland Center
Sat 04:02:08 PM 42.4828 -79.5850 269° West 434 499 38,000  Level Cleveland Center
Sat 04:03:10 PM 42.4800 -79.7481 269° West 433 498 38,000  Level Cleveland Center
Sat 04:04:12 PM 42.4769 -79.9092 269° West 430 495 38,000  Level Cleveland Center
Sat 04:05:14 PM 42.4719 -80.0933 268° West 433 498 38,000  Level Cleveland Center
Sat 04:06:16 PM 42.4689 -80.2561 269° West 431 496 38,000  Level Cleveland Center
Sat 04:07:18 PM 42.4647 -80.4172 268° West 427 491 38,000  Level Cleveland Center
Sat 04:08:20 PM 42.4628 -80.5800 269° West 430 495 38,000  Level Cleveland Center
Sat 04:09:22 PM 42.4578 -80.7733 268° West 439 505 38,000  Level Cleveland Center
Sat 04:10:24 PM 42.4536 -80.9364 268° West 435 501 38,000  Level Cleveland Center
Sat 04:11:26 PM 42.4483 -81.1014 268° West 436 502 38,000  Level Cleveland Center
Sat 04:12:28 PM 42.4444 -81.2675 268° West 440 506 38,000  Level Cleveland Center
Sat 04:13:30 PM 42.4392 -81.4339 268° West 439 505 38,000  Level Cleveland Center
Sat 04:14:32 PM 42.4339 -81.6019 268° West 444 511 38,000  Level Cleveland Center
Sat 04:15:34 PM 42.4267 -81.7961 267° West 442 509 38,000  Level Cleveland Center
Sat 04:16:36 PM 42.4214 -81.9600 268° West 436 502 38,000  Level Cleveland Center
Sat 04:17:38 PM 42.4156 -82.1239 267° West 436 502 38,000  Level Cleveland Center
Sat 04:18:41 PM 42.4103 -82.2733 267° West 435 501 38,000  Level Cleveland Center
Sat 04:19:43 PM 42.4025 -82.4675 267° West 433 498 38,000  Level Cleveland Center
Sat 04:20:45 PM 42.3950 -82.6297 266° West 433 498 38,000  Level Cleveland Center
Sat 04:21:47 PM 42.3892 -82.7914 267° West 433 498 38,000  Level Cleveland Center
Sat 04:22:49 PM 42.3811 -82.9542 266° West 435 501 38,000  Level Cleveland Center
Sat 04:23:51 PM 42.3747 -83.1158 267° West 434 499 38,000  Level Cleveland Center
Sat 04:24:53 PM 42.3675 -83.2958 267° West 431 496 38,000  Level Cleveland Center
Sat 04:25:55 PM 42.3592 -83.4614 266° West 435 501 38,000  Level Cleveland Center
Sat 04:26:57 PM 42.3506 -83.6275 266° West 441 507 38,000  Level Cleveland Center
Sat 04:27:59 PM 42.3422 -83.7881 266° West 435 501 38,000  Level Cleveland Center
Sat 04:29:01 PM 42.3339 -83.9500 266° West 435 501 38,000  Level Cleveland Center
Sat 04:30:03 PM 42.3239 -84.1436 266° West 434 499 38,000  Level Cleveland Center
Sat 04:31:05 PM 42.3158 -84.3056 266° West 434 499 38,000  Level Cleveland Center
Sat 04:32:07 PM 42.3069 -84.4675 266° West 435 501 38,000  Level Cleveland Center
Sat 04:33:08 PM 42.2969 -84.6308 265° West 439 505 38,000  Level Cleveland Center
Sat 04:34:13 PM 42.2858 -84.8164 265° West 443 510 38,000  Level Chicago Center
Sat 04:35:15 PM 42.2758 -84.9844 265° West 448 516 38,000  Level Chicago Center
Sat 04:36:17 PM 42.2650 -85.1522 265° West 449 517 38,000  Level Chicago Center
Sat 04:37:19 PM 42.2539 -85.3225 265° West 453 521 38,000  Level Chicago Center
Sat 04:38:21 PM 42.2392 -85.5261 264° West 454 522 38,000  Level Chicago Center
Sat 04:39:23 PM 42.2300 -85.6922 266° West 453 521 38,000  Level Chicago Center
Sat 04:40:25 PM 42.2164 -85.8636 264° West 451 519 38,000  Level Chicago Center
Sat 04:41:27 PM 42.2036 -86.0492 265° West 458 527 38,000  Level Chicago Center
Sat 04:42:29 PM 42.1914 -86.2183 264° West 456 525 38,000  Level Chicago Center
Sat 04:43:31 PM 42.1781 -86.3869 264° West 456 525 38,000  Level Chicago Center
Sat 04:44:33 PM 42.1664 -86.5553 265° West 453 521 38,000  Level Chicago Center
Sat 04:45:35 PM 42.1533 -86.7222 264° West 449 517 38,000  Level Chicago Center
Sat 04:46:37 PM 42.1375 -86.9211 264° West 450 518 38,000  Level Chicago Center
Sat 04:47:39 PM 42.1244 -87.0867 264° West 449 517 38,000  Level Chicago Center
Sat 04:48:41 PM 42.1108 -87.2506 264° West 446 513 38,000  Level Chicago Center
Sat 04:49:43 PM 42.0986 -87.4133 264° West 441 507 38,000  Level Chicago Center
Sat 04:50:45 PM 42.0844 -87.5769 263° West 442 509 38,000  Level Chicago Center
Sat 04:51:47 PM 42.0672 -87.7722 263° West 443 510 38,000  Level Chicago Center
Sat 04:52:49 PM 42.0528 -87.9378 263° West 449 517 38,000  Level Chicago Center
Sat 04:53:50 PM 42.0392 -88.1014 264° West 445 512 38,000  Level Chicago Center
Sat 04:54:52 PM 42.0231 -88.2631 262° West 443 510 38,000  Level Chicago Center
Sat 04:55:54 PM 42.0089 -88.4267 263° West 445 512 38,000  Level Chicago Center
Sat 04:56:56 PM 41.9900 -88.6247 263° West 449 517 38,000  Level Chicago Center
Sat 04:57:58 PM 41.9742 -88.7878 263° West 448 516 38,000  Level Chicago Center
Sat 04:59:00 PM 41.9581 -88.9531 263° West 448 516 38,000  Level Chicago Center
Sat 05:00:01 PM 41.9417 -89.1169 262° West 448 516 38,000  Level Chicago Center
Sat 05:01:03 PM 41.9267 -89.2828 263° West 452 520 38,000  Level Chicago Center
Sat 05:02:05 PM 41.9072 -89.4769 262° West 443 510 38,000  Level Chicago Center
Sat 05:03:07 PM 41.8892 -89.6425 262° West 448 516 38,000  Level Chicago Center
Sat 05:04:08 PM 41.8725 -89.8061 262° West 448 516 38,000  Level Chicago Center
Sat 05:05:10 PM 41.8561 -89.9736 263° West 449 517 38,000  Level Chicago Center
Sat 05:06:12 PM 41.8381 -90.1386 262° West 450 518 38,000  Level Chicago Center
Sat 05:07:14 PM 41.8214 -90.3022 262° West 448 516 38,000  Level Chicago Center
Sat 05:08:15 PM 41.8022 -90.4661 261° West 449 517 38,000  Level Chicago Center
Sat 05:09:17 PM 41.7792 -90.6642 261° West 449 517 38,000  Level Chicago Center
Sat 05:10:19 PM 41.7608 -90.8264 261° West 443 510 38,000  Level Chicago Center
Sat 05:11:20 PM 41.7425 -90.9847 261° West 437 503 38,000  Level Chicago Center
Sat 05:12:22 PM 41.7242 -91.1453 261° West 438 504 38,000  Level Chicago Center
Sat 05:13:24 PM 41.7044 -91.3042 261° West 437 503 38,000  Level Chicago Center
Sat 05:14:26 PM 41.6861 -91.4636 261° West 437 503 38,000  Level Chicago Center
Sat 05:15:27 PM 41.6636 -91.6561 261° West 439 505 38,000  Level Chicago Center
Sat 05:16:29 PM 41.6433 -91.8158 260° West 439 505 38,000  Level Chicago Center
Sat 05:17:31 PM 41.6236 -91.9761 261° West 440 506 38,000  Level Chicago Center
Sat 05:18:33 PM 41.6039 -92.1367 261° West 441 507 38,000  Level Chicago Center
Sat 05:19:34 PM 41.5833 -92.2956 260° West 439 505 38,000  Level Chicago Center
Sat 05:20:36 PM 41.5625 -92.4547 260° West 438 504 38,000  Level Chicago Center
Sat 05:21:38 PM 41.5392 -92.6450 261° West 437 503 38,000  Level Chicago Center
Sat 05:22:40 PM 41.5169 -92.8014 259° West 435 501 38,000  Level Chicago Center
Sat 05:23:41 PM 41.4972 -92.9544 260° West 427 491 38,000  Level Chicago Center
Sat 05:24:43 PM 41.4761 -93.1097 260° West 430 495 38,000  Level Chicago Center
Sat 05:25:45 PM 41.4558 -93.2633 260° West 426 490 38,000  Level Chicago Center
Sat 05:26:47 PM 41.4300 -93.4492 260° West 429 494 38,000  Level Chicago Center
Sat 05:27:49 PM 41.4081 -93.6061 259° West 434 499 38,000  Level Chicago Center
Sat 05:29:00 PM 41.3842 -93.7886 260° West 429 494 38,000  Level Minneapolis Center
Sat 05:30:02 PM 41.3617 -93.9458 259° West 435 501 38,000  Level Minneapolis Center
Sat 05:31:04 PM 41.3403 -94.1017 260° West 435 501 38,000  Level Minneapolis Center
Sat 05:32:06 PM 41.3153 -94.2669 259° West 433 498 38,000  Level Minneapolis Center
Sat 05:33:07 PM 41.2914 -94.4236 259° West 432 497 38,000  Level Minneapolis Center
Sat 05:34:09 PM 41.2700 -94.5794 260° West 431 496 38,000  Level Minneapolis Center
Sat 05:35:11 PM 41.2467 -94.7361 259° West 431 496 38,000  Level Minneapolis Center
Sat 05:36:13 PM 41.2161 -94.9269 258° West 437 503 38,000  Level Minneapolis Center
Sat 05:37:14 PM 41.1914 -95.0847 258° West 437 503 38,000  Level Minneapolis Center
Sat 05:38:16 PM 41.1672 -95.2428 259° West 437 503 38,000  Level Minneapolis Center
Sat 05:39:18 PM 41.1414 -95.4011 258° West 437 503 38,000  Level Minneapolis Center
Sat 05:40:20 PM 41.1158 -95.5594 258° West 437 503 38,000  Level Minneapolis Center
Sat 05:41:21 PM 41.0906 -95.7169 258° West 434 499 38,000  Level Minneapolis Center
Sat 05:42:23 PM 41.0633 -95.8764 257° West 438 504 38,000  Level Minneapolis Center
Sat 05:43:25 PM 41.0386 -96.0358 258° West 437 503 38,000  Level Minneapolis Center
Sat 05:45:29 PM 40.9831 -96.3825 258° West 435 501 38,000  Level Minneapolis Center
Sat 05:46:30 PM 40.9569 -96.5378 257° West 432 497 38,000  Level Minneapolis Center
Sat 05:47:32 PM 40.9308 -96.6928 257° West 431 496 38,000  Level Minneapolis Center
Sat 05:48:34 PM 40.9044 -96.8456 257° West 428 493 38,000  Level Minneapolis Center
Sat 05:49:36 PM 40.8758 -96.9986 256° West 429 494 38,000  Level Minneapolis Center
Sat 05:50:38 PM 40.8478 -97.1514 256° West 429 494 38,000  Level Minneapolis Center
Sat 05:51:39 PM 40.8200 -97.3039 257° West 428 493 38,000  Level Minneapolis Center
Sat 05:52:41 PM 40.7892 -97.4678 256° West 429 494 38,000  Level Minneapolis Center
Sat 05:53:43 PM 40.7597 -97.6197 256° West 429 494 38,000  Level Minneapolis Center
Sat 05:54:45 PM 40.7314 -97.7728 256° West 428 493 38,000  Level Minneapolis Center
Sat 05:55:46 PM 40.6964 -97.9539 256° West 425 489 38,000  Level Minneapolis Center
Sat 05:56:48 PM 40.6667 -98.1044 255° West 424 488 38,000  Level Minneapolis Center
Sat 05:58:02 PM 40.6322 -98.2825 256° West 419 482 38,000  Level Minneapolis Center
Sat 05:59:04 PM 40.6072 -98.4336 258° West 420 483 38,000  Level Minneapolis Center
Sat 06:00:06 PM 40.6181 -98.5903 275° West 427 491 38,000  Level Minneapolis Center
Sat 06:01:08 PM 40.6319 -98.7478 277° West 430 495 38,000  Level Minneapolis Center
Sat 06:02:09 PM 40.6461 -98.9056 277° West 431 496 38,000 -488 Level Minneapolis Center
Sat 06:03:11 PM 40.6589 -99.0633 276° West 431 496 37,000 -968 Descending Minneapolis Center
Sat 06:04:13 PM 40.6728 -99.2161 277° West 424 488 36,000 -488 Descending Denver Center
Sat 06:05:14 PM 40.6856 -99.3667 276° West 414 476 36,000  Level Denver Center
Sat 06:06:16 PM 40.7000 -99.5478 276° West 414 476 36,000  Level Denver Center
Sat 06:07:18 PM 40.7125 -99.6994 276° West 414 476 36,000  Level Denver Center
Sat 06:08:19 PM 40.7247 -99.8517 276° West 416 479 36,000  Level Denver Center
Sat 06:09:21 PM 40.7367 -100.0097 276° West 416 479 36,000  Level Denver Center
Sat 06:10:23 PM 40.7486 -100.1547 276° West 416 479 36,000  Level Denver Center
Sat 06:11:24 PM 40.7617 -100.3250 276° West 418 481 36,000  Level Denver Center
Sat 06:12:26 PM 40.7728 -100.4714 276° West 420 483 36,000  Level Denver Center
Sat 06:13:28 PM 40.7831 -100.6186 275° West 420 483 36,000  Level Denver Center
Sat 06:14:29 PM 40.7644 -100.7717 261° West 433 498 36,000  Level Denver Center
Sat 06:15:31 PM 40.7386 -100.9408 259° West 420 483 36,000  Level Denver Center
Sat 06:16:33 PM 40.7158 -101.0817 258° West 411 473 36,000  Level Denver Center
Sat 06:17:34 PM 40.6867 -101.2481 257° West 416 479 36,000  Level Denver Center
Sat 06:18:36 PM 40.6614 -101.3869 257° West 410 472 36,000 -293 Level Denver Center
Sat 06:19:37 PM 40.6328 -101.5500 257° West 410 472 35,400 -780 Descending Denver Center
Sat 06:20:39 PM 40.6083 -101.6889 257° West 407 468 34,400 -919 Descending Denver Center
Sat 06:21:41 PM 40.5836 -101.8250 257° West 402 463 33,500 -1,024 Descending Denver Center
Sat 06:22:42 PM 40.5558 -101.9831 257° West 398 458 32,300 -1,073 Descending Denver Center
Sat 06:23:44 PM 40.5319 -102.1153 257° West 391 450 31,300 -1,024 Descending Denver Center
Sat 06:24:45 PM 40.5028 -102.2664 256° West 383 441 30,200 -1,024 Descending Denver Center
Sat 06:25:47 PM 40.4792 -102.3967 257° West 383 441 29,200 -1,016 Descending Denver Center
Sat 06:26:49 PM 40.4519 -102.5428 256° West 372 428 28,100 -1,024 Descending Denver Center
Sat 06:27:50 PM 40.4283 -102.6672 256° West 368 423 27,100 -927 Descending Denver Center
Sat 06:28:52 PM 40.4064 -102.7875 257° West 368 423 26,200 -927 Descending Denver Center
Sat 06:29:53 PM 40.3822 -102.9131 256° West 358 412 25,200 -1,073 Descending Denver Center
Sat 06:30:55 PM 40.3550 -103.0583 256° West 345 397 24,000 -1,065 Descending Denver Center
Sat 06:31:57 PM 40.3322 -103.1775 256° West 340 391 23,000 -976 Descending Denver Center
Sat 06:32:58 PM 40.3089 -103.2953 255° West 335 386 22,000 -976 Descending Denver Center
Sat 06:34:00 PM 40.2864 -103.4133 256° West 334 384 21,000 -968 Descending Denver Center
Sat 06:35:02 PM 40.2642 -103.5264 256° West 323 372 20,000 -976 Descending Denver Center
Sat 06:36:03 PM 40.2417 -103.6392 255° West 322 371 19,000 -927 Descending Denver Center
Sat 06:37:05 PM 40.2197 -103.7486 255° West 334 384 18,100 -1,258 Descending Denver Center
Sat 06:38:07 PM 40.1864 -103.8844 252° West 322 371 16,400 -1,610 Descending Denver Center
Sat 06:39:08 PM 40.1358 -103.9764 234° Southwest 313 360 14,800 -1,463 Descending Denver Center
Sat 06:40:10 PM 40.0781 -104.0600 228° Southwest 303 349 13,400 -1,561 Descending Denver Center
Sat 06:41:11 PM 40.0194 -104.1464 228° Southwest 303 349 11,600 -1,659 Descending Denver Center
Sat 06:42:13 PM 39.9658 -104.2286 230° Southwest 299 344 10,000 -1,500 Descending Denver Center
Sat 06:43:15 PM 39.9314 -104.3378 248° West 299 344 8,500 -1,241 Descending Denver Center
Sat 06:44:09 PM 39.9000 -104.4333 247° West 285 328 7,600 -750 Descending Denver TRACON
Sat 06:45:15 PM 39.8833 -104.5167 255° West 219 252 7,000 -762 Descending Denver TRACON
Sat 06:46:15 PM 39.8833 -104.5667 270° West 158 182 6,000 -810 Descending Denver TRACON
Sat 06:47:21 PM 39.8772 -104.6297 263° West 151 174 5,300 -636 Descending Denver Center
Sat 06:49:00 PM 39.8617 -104.6732 180° South  Level Estimated
Sat 06:56:00 PM 39.8617 -104.6732 North  Level Estimated
Sat 06:57:00 PM 39.8617 -104.6732 North  Level Estimated
Sat 06:58:00 PM 39.8617 -104.6732 North  Level Estimated

Login

Don't have an account? Register now (free) for customized features, flight alerts, and more!